createdAt,value
2022-08-08T00:00:54.070Z,21.80
2022-08-08T00:02:42.934Z,24.00
2022-08-08T00:05:21.750Z,23.73
2022-08-08T00:08:16.915Z,26.83
2022-08-08T00:10:52.746Z,28.77
2022-08-08T00:14:17.527Z,42.40
2022-08-08T00:16:26.267Z,44.13
2022-08-08T00:19:03.099Z,39.30
2022-08-08T00:21:39.386Z,37.17
2022-08-08T00:24:19.298Z,32.75
2022-08-08T00:26:58.857Z,33.97
2022-08-08T00:29:44.215Z,29.58
2022-08-08T00:32:35.157Z,23.95
2022-08-08T00:35:28.345Z,35.85
2022-08-08T00:38:31.393Z,26.70
2022-08-08T00:41:55.338Z,28.98
2022-08-08T00:44:47.896Z,27.65
2022-08-08T00:48:05.360Z,27.58
2022-08-08T00:51:19.800Z,29.63
2022-08-08T00:54:34.251Z,26.67
2022-08-08T00:57:40.958Z,30.08
2022-08-08T01:00:19.398Z,23.88
2022-08-08T01:04:00.777Z,28.70
2022-08-08T01:06:57.347Z,29.55
2022-08-08T01:10:15.850Z,28.30
2022-08-08T01:13:44.015Z,25.77
2022-08-08T01:16:49.304Z,26.80
2022-08-08T01:20:18.543Z,28.65
2022-08-08T01:24:03.311Z,22.00
2022-08-08T01:26:24.022Z,25.13
2022-08-08T01:29:24.900Z,24.73
2022-08-08T01:32:44.008Z,29.23
2022-08-08T01:35:40.616Z,22.55
2022-08-08T01:39:05.623Z,24.80
2022-08-08T01:41:52.540Z,27.10
2022-08-08T01:44:38.920Z,24.88
2022-08-08T01:48:14.798Z,25.92
2022-08-08T01:50:21.122Z,27.55
2022-08-08T01:55:14.771Z,25.58
2022-08-08T01:56:30.052Z,26.70
2022-08-08T01:59:10.377Z,28.08
2022-08-08T02:02:05.391Z,22.15
2022-08-08T02:04:52.272Z,22.65
2022-08-08T02:07:27.874Z,24.60
2022-08-08T02:10:37.117Z,22.10
2022-08-08T02:13:52.544Z,24.23
2022-08-08T02:16:29.371Z,21.63
2022-08-08T02:19:26.995Z,26.80
2022-08-08T02:22:17.607Z,22.35
2022-08-08T02:24:51.992Z,26.00
2022-08-08T02:27:42.157Z,29.42
2022-08-08T02:30:24.873Z,21.73
2022-08-08T02:33:14.604Z,26.80
2022-08-08T02:36:03.517Z,30.95
2022-08-08T02:38:55.949Z,97.75
2022-08-08T02:42:10.570Z,31.33
2022-08-08T02:45:03.722Z,56.00
2022-08-08T02:48:10.785Z,28.33
2022-08-08T02:51:30.170Z,28.38
2022-08-08T02:54:41.295Z,44.80
2022-08-08T02:57:45.766Z,27.05
2022-08-08T03:00:50.664Z,26.83
2022-08-08T03:05:02.764Z,24.55
2022-08-08T03:07:21.291Z,27.77
2022-08-08T03:10:44.049Z,30.67
2022-08-08T03:15:57.088Z,24.20
2022-08-08T03:16:43.396Z,27.52
2022-08-08T03:19:25.531Z,30.83
2022-08-08T03:21:59.816Z,23.75
2022-08-08T03:24:31.823Z,29.88
2022-08-08T03:27:11.347Z,23.80
2022-08-08T03:29:56.088Z,33.55
2022-08-08T03:32:47.602Z,26.38
2022-08-08T03:35:30.192Z,29.52
2022-08-08T03:38:56.152Z,29.58
2022-08-08T03:40:56.903Z,30.85
2022-08-08T03:43:31.440Z,25.55
2022-08-08T03:46:08.865Z,30.13
2022-08-08T03:49:09.883Z,34.60
2022-08-08T03:51:40.460Z,32.15
2022-08-08T03:54:41.459Z,32.53
2022-08-08T03:58:33.740Z,29.50
2022-08-08T04:00:08.133Z,28.10
2022-08-08T04:02:54.870Z,28.88
2022-08-08T04:05:28.400Z,29.67
2022-08-08T04:08:06.214Z,30.35
2022-08-08T04:10:37.624Z,27.55
2022-08-08T04:13:18.101Z,26.83
2022-08-08T04:16:03.361Z,28.92
2022-08-08T04:18:44.886Z,31.67
2022-08-08T04:21:23.059Z,38.20
2022-08-08T04:24:11.560Z,35.42
2022-08-08T04:26:57.219Z,33.55
2022-08-08T04:29:33.201Z,37.70
2022-08-08T04:32:07.412Z,37.67
2022-08-08T04:34:55.257Z,40.13
2022-08-08T04:37:32.200Z,39.65
2022-08-08T04:40:10.525Z,38.55
2022-08-08T04:42:57.406Z,43.65
2022-08-08T04:45:47.989Z,35.47
2022-08-08T04:48:21.889Z,41.42
2022-08-08T04:50:51.438Z,37.63
2022-08-08T04:54:37.056Z,41.35
2022-08-08T04:56:17.146Z,36.17
2022-08-08T04:58:49.555Z,35.65
2022-08-08T05:01:22.003Z,30.25
2022-08-08T05:04:10.876Z,38.80
2022-08-08T05:06:43.772Z,35.38
2022-08-08T05:09:13.569Z,32.22
2022-08-08T05:11:47.740Z,37.83
2022-08-08T05:14:26.297Z,33.92
2022-08-08T05:17:08.801Z,35.03
2022-08-08T05:20:11.422Z,37.13
2022-08-08T05:22:35.921Z,39.72
2022-08-08T05:25:06.226Z,31.50
2022-08-08T05:27:44.179Z,40.03
2022-08-08T05:30:15.093Z,33.55
2022-08-08T05:32:50.234Z,35.72
2022-08-08T05:35:24.769Z,41.55
2022-08-08T05:38:04.708Z,35.35
2022-08-08T05:40:58.198Z,37.58
2022-08-08T05:44:02.181Z,40.95
2022-08-08T05:46:24.523Z,54.10
2022-08-08T05:48:55.760Z,48.90
2022-08-08T05:51:48.150Z,97.57
2022-08-08T05:54:27.001Z,44.00
2022-08-08T05:57:36.729Z,40.75
2022-08-08T06:00:22.872Z,45.42
2022-08-08T06:03:17.396Z,43.30
2022-08-08T06:06:01.183Z,48.55
2022-08-08T06:08:35.937Z,38.97
2022-08-08T06:11:10.955Z,35.97
2022-08-08T06:13:47.809Z,37.70
2022-08-08T06:16:24.998Z,38.80
2022-08-08T06:19:24.073Z,42.70
2022-08-08T06:21:57.280Z,28.00
2022-08-08T06:24:37.578Z,35.28
2022-08-08T06:27:12.389Z,37.00
2022-08-08T06:30:00.951Z,33.22
2022-08-08T06:32:47.844Z,40.15
2022-08-08T06:36:04.490Z,43.13
2022-08-08T06:38:14.545Z,33.53
2022-08-08T06:40:54.244Z,54.75
2022-08-08T06:43:34.435Z,67.38
2022-08-08T06:46:23.823Z,55.47
2022-08-08T06:48:54.812Z,44.92
2022-08-08T06:51:23.983Z,49.72
2022-08-08T06:54:03.214Z,42.47
2022-08-08T06:56:37.921Z,56.67
2022-08-08T06:59:09.965Z,42.00
2022-08-08T07:02:27.468Z,38.42
2022-08-08T07:04:51.263Z,45.90
2022-08-08T07:07:28.284Z,41.53
2022-08-08T07:10:08.252Z,43.90
2022-08-08T07:12:47.864Z,40.50
2022-08-08T07:16:03.635Z,45.00
2022-08-08T07:18:35.807Z,39.65
2022-08-08T07:21:09.976Z,37.60
2022-08-08T07:24:01.527Z,37.70
2022-08-08T07:26:43.078Z,39.38
2022-08-08T07:29:20.645Z,33.28
2022-08-08T07:32:08.562Z,35.10
2022-08-08T07:34:48.363Z,34.10
2022-08-08T07:37:27.985Z,37.13
2022-08-08T07:40:28.741Z,34.95
2022-08-08T07:43:02.400Z,41.78
2022-08-08T07:45:34.632Z,30.58
2022-08-08T07:48:20.614Z,43.08
2022-08-08T07:50:55.103Z,32.63
2022-08-08T07:54:01.870Z,37.97
2022-08-08T07:56:36.901Z,37.22
2022-08-08T07:59:14.744Z,41.95
2022-08-08T08:02:36.219Z,35.10
2022-08-08T08:04:52.104Z,37.78
2022-08-08T08:07:26.228Z,34.85
2022-08-08T08:10:05.100Z,41.28
2022-08-08T08:12:42.262Z,33.58
2022-08-08T08:15:21.690Z,41.08
2022-08-08T08:17:59.297Z,59.85
2022-08-08T08:20:30.988Z,42.15
2022-08-08T08:23:03.538Z,33.15
2022-08-08T08:25:42.792Z,38.78
2022-08-08T08:28:21.211Z,53.33
2022-08-08T08:30:56.350Z,40.25
2022-08-08T08:33:28.446Z,35.53
2022-08-08T08:36:19.663Z,30.98
2022-08-08T08:38:49.295Z,32.38
2022-08-08T08:41:23.834Z,34.47
2022-08-08T08:44:13.232Z,35.28
2022-08-08T08:46:45.631Z,26.45
2022-08-08T08:49:20.401Z,25.60
2022-08-08T08:51:58.077Z,28.90
2022-08-08T08:54:34.123Z,24.25
2022-08-08T08:57:15.797Z,29.98
2022-08-08T09:00:00.002Z,24.77
2022-08-08T09:02:41.220Z,29.42
2022-08-08T09:05:14.023Z,38.28
2022-08-08T09:08:18.402Z,25.80
2022-08-08T09:10:51.083Z,24.08
2022-08-08T09:13:23.790Z,22.50
2022-08-08T09:16:03.965Z,31.73
2022-08-08T09:18:39.378Z,23.08
2022-08-08T09:21:58.983Z,22.75
2022-08-08T09:23:58.654Z,24.85
2022-08-08T09:26:39.807Z,23.83
2022-08-08T09:29:22.611Z,24.95
2022-08-08T09:31:57.618Z,17.50
2022-08-08T09:34:37.798Z,24.85
2022-08-08T09:37:57.519Z,25.60
2022-08-08T09:40:10.839Z,31.30
2022-08-08T09:42:44.449Z,22.90
2022-08-08T09:45:55.343Z,20.42
2022-08-08T09:48:21.106Z,18.52
2022-08-08T09:50:55.042Z,19.98
2022-08-08T09:53:32.922Z,24.23
2022-08-08T09:56:21.708Z,18.95
2022-08-08T09:58:58.622Z,25.52
2022-08-08T10:01:59.711Z,14.13
2022-08-08T10:04:38.363Z,12.98
2022-08-08T10:07:15.910Z,19.48
2022-08-08T10:10:00.277Z,18.38
2022-08-08T10:12:52.961Z,16.38
2022-08-08T10:15:25.166Z,10.48
2022-08-08T10:18:09.071Z,16.88
2022-08-08T10:20:58.099Z,8.40
2022-08-08T10:23:45.842Z,9.88
2022-08-08T10:26:40.620Z,9.10
2022-08-08T10:29:21.089Z,10.50
2022-08-08T10:32:15.957Z,15.60
2022-08-08T10:34:58.490Z,9.05
2022-08-08T10:37:30.641Z,16.98
2022-08-08T10:40:06.919Z,8.32
2022-08-08T10:42:37.760Z,10.43
2022-08-08T10:45:16.071Z,12.50
2022-08-08T10:47:48.510Z,9.98
2022-08-08T10:50:25.035Z,11.55
2022-08-08T10:53:03.618Z,10.60
2022-08-08T10:55:46.515Z,14.98
2022-08-08T10:58:16.005Z,11.50
2022-08-08T11:00:53.352Z,16.55
2022-08-08T11:04:00.667Z,11.90
2022-08-08T11:06:34.269Z,18.35
2022-08-08T11:09:09.717Z,15.40
2022-08-08T11:12:06.555Z,15.75
2022-08-08T11:14:36.395Z,15.82
2022-08-08T11:17:06.752Z,18.88
2022-08-08T11:19:46.554Z,19.38
2022-08-08T11:22:26.884Z,18.25
2022-08-08T11:24:58.516Z,23.38
2022-08-08T11:27:37.311Z,32.92
2022-08-08T11:30:24.643Z,23.77
2022-08-08T11:32:58.440Z,23.25
2022-08-08T11:35:38.490Z,27.27
2022-08-08T11:38:39.585Z,21.52
2022-08-08T11:41:04.695Z,23.17
2022-08-08T11:43:39.233Z,23.98
2022-08-08T11:46:14.246Z,20.33
2022-08-08T11:48:48.804Z,20.00
2022-08-08T11:51:30.487Z,24.17
2022-08-08T11:54:27.430Z,26.60
2022-08-08T11:56:58.155Z,29.90
2022-08-08T12:00:00.613Z,27.70
2022-08-08T12:02:33.708Z,29.70
2022-08-08T12:05:04.169Z,26.58
2022-08-08T12:07:35.569Z,24.50
2022-08-08T12:10:12.487Z,21.30
2022-08-08T12:12:45.932Z,27.20
2022-08-08T12:15:29.486Z,38.65
2022-08-08T12:18:00.074Z,25.13
2022-08-08T12:20:38.902Z,22.75
2022-08-08T12:23:13.902Z,24.48
2022-08-08T12:25:55.163Z,21.05
2022-08-08T12:28:25.544Z,19.25
2022-08-08T12:31:07.122Z,19.77
2022-08-08T12:34:02.066Z,35.13
2022-08-08T12:36:40.690Z,15.98
2022-08-08T12:39:15.470Z,19.50
2022-08-08T12:42:01.604Z,14.50
2022-08-08T12:44:33.335Z,18.50
2022-08-08T12:47:08.130Z,14.65
2022-08-08T12:49:45.042Z,14.27
2022-08-08T12:52:28.716Z,14.32
2022-08-08T12:55:13.274Z,20.15
2022-08-08T12:57:49.802Z,17.88
2022-08-08T13:00:34.016Z,22.38
2022-08-08T13:03:09.170Z,8.25
2022-08-08T13:06:04.275Z,10.10
2022-08-08T13:08:33.282Z,9.60
2022-08-08T13:11:05.538Z,9.07
2022-08-08T13:13:37.655Z,18.60
2022-08-08T13:16:20.221Z,10.18
2022-08-08T13:18:57.590Z,10.90
2022-08-08T13:21:49.249Z,10.43
2022-08-08T13:24:38.531Z,8.73
2022-08-08T13:27:12.406Z,8.90
2022-08-08T13:29:50.780Z,32.17
2022-08-08T13:32:20.987Z,18.27
2022-08-08T13:34:55.610Z,8.68
2022-08-08T13:37:28.016Z,10.35
2022-08-08T13:40:17.557Z,12.65
2022-08-08T13:42:56.390Z,11.10
2022-08-08T13:45:26.521Z,9.52
2022-08-08T13:47:59.861Z,10.23
2022-08-08T13:50:43.189Z,10.38
2022-08-08T13:53:27.541Z,9.07
2022-08-08T13:56:01.396Z,7.35
2022-08-08T13:58:31.309Z,7.35
2022-08-08T14:01:13.771Z,7.93
2022-08-08T14:03:54.940Z,7.50
2022-08-08T14:06:34.126Z,11.23
2022-08-08T14:09:25.364Z,9.13
2022-08-08T14:11:54.409Z,9.10
2022-08-08T14:14:26.970Z,10.68
2022-08-08T14:16:57.455Z,12.15
2022-08-08T14:19:58.202Z,9.00
2022-08-08T14:22:27.312Z,7.25
2022-08-08T14:24:59.961Z,6.53
2022-08-08T14:27:30.374Z,7.90
2022-08-08T14:30:17.096Z,8.93
2022-08-08T14:32:53.229Z,5.45
2022-08-08T14:35:35.058Z,8.48
2022-08-08T14:38:33.093Z,9.88
2022-08-08T14:40:59.218Z,9.15
2022-08-08T14:44:01.748Z,8.30
2022-08-08T14:46:19.319Z,10.93
2022-08-08T14:49:02.662Z,12.90
2022-08-08T14:51:51.732Z,6.40
2022-08-08T14:54:29.267Z,10.20
2022-08-08T14:56:58.553Z,8.07
2022-08-08T14:59:44.413Z,12.00
2022-08-08T15:02:31.237Z,9.20
2022-08-08T15:05:10.656Z,6.18
2022-08-08T15:07:41.372Z,7.57
2022-08-08T15:10:13.147Z,7.45
2022-08-08T15:12:42.120Z,10.65
2022-08-08T15:15:11.701Z,9.23
2022-08-08T15:17:49.547Z,8.55
2022-08-08T15:20:19.655Z,6.60
2022-08-08T15:22:48.659Z,11.05
2022-08-08T15:25:21.152Z,8.30
2022-08-08T15:28:32.561Z,8.48
2022-08-08T15:30:48.719Z,12.30
2022-08-08T15:33:20.915Z,10.82
2022-08-08T15:36:03.750Z,10.77
2022-08-08T15:38:32.300Z,15.57
2022-08-08T15:41:02.439Z,8.13
2022-08-08T15:43:35.644Z,9.35
2022-08-08T15:46:05.309Z,11.05
2022-08-08T15:48:33.803Z,10.93
2022-08-08T15:51:07.273Z,11.57
2022-08-08T15:53:49.100Z,11.95
2022-08-08T15:56:20.430Z,11.23
2022-08-08T15:58:50.238Z,13.02
2022-08-08T16:01:20.902Z,11.68
2022-08-08T16:03:51.903Z,17.38
2022-08-08T16:06:27.665Z,13.35
2022-08-08T16:09:02.238Z,13.20
2022-08-08T16:13:09.457Z,12.90
2022-08-08T16:14:37.831Z,11.25
2022-08-08T16:17:06.819Z,17.65
2022-08-08T16:19:57.161Z,17.15
2022-08-08T16:22:38.981Z,12.98
2022-08-08T16:25:11.460Z,11.85
2022-08-08T16:27:45.447Z,16.88
2022-08-08T16:30:36.200Z,11.05
2022-08-08T16:33:05.788Z,11.85
2022-08-08T16:35:34.721Z,13.05
2022-08-08T16:38:03.209Z,9.30
2022-08-08T16:40:32.829Z,11.75
2022-08-08T16:43:03.073Z,14.23
2022-08-08T16:46:44.378Z,16.50
2022-08-08T16:48:20.689Z,11.73
2022-08-08T16:50:52.585Z,16.80
2022-08-08T16:55:03.982Z,12.63
2022-08-08T16:56:14.071Z,10.68
2022-08-08T16:58:45.892Z,15.07
2022-08-08T17:01:17.982Z,12.10
2022-08-08T17:03:58.511Z,21.77
2022-08-08T17:06:36.465Z,18.63
2022-08-08T17:09:07.132Z,13.60
2022-08-08T17:11:50.861Z,15.73
2022-08-08T17:14:27.624Z,18.20
2022-08-08T17:17:03.726Z,12.27
2022-08-08T17:19:40.862Z,13.00
2022-08-08T17:22:10.423Z,12.18
2022-08-08T17:24:39.304Z,17.88
2022-08-08T17:27:08.350Z,11.93
2022-08-08T17:29:43.642Z,12.23
2022-08-08T17:32:29.073Z,14.63
2022-08-08T17:35:54.526Z,16.13
2022-08-08T17:37:53.345Z,16.17
2022-08-08T17:40:22.740Z,16.75
2022-08-08T17:42:52.253Z,13.93
2022-08-08T17:45:23.958Z,18.58
2022-08-08T17:47:54.862Z,24.45
2022-08-08T17:50:25.007Z,18.27
2022-08-08T17:52:54.096Z,14.90
2022-08-08T17:56:05.012Z,20.45
2022-08-08T17:58:14.949Z,16.73
2022-08-08T18:00:47.414Z,18.77
2022-08-08T18:03:25.988Z,14.23
2022-08-08T18:05:54.607Z,17.73
2022-08-08T18:08:37.536Z,13.77
2022-08-08T18:11:15.504Z,15.13
2022-08-08T18:13:47.162Z,17.58
2022-08-08T18:16:22.916Z,15.23
2022-08-08T18:18:55.978Z,19.17
2022-08-08T18:22:00.430Z,16.10
2022-08-08T18:24:19.569Z,15.85
2022-08-08T18:26:54.828Z,15.10
2022-08-08T18:29:33.868Z,16.63
2022-08-08T18:32:06.819Z,16.13
2022-08-08T18:34:36.439Z,22.75
2022-08-08T18:37:08.433Z,19.40
2022-08-08T18:39:41.178Z,21.25
2022-08-08T18:42:15.861Z,20.50
2022-08-08T18:44:55.498Z,17.60
2022-08-08T18:47:27.487Z,22.17
2022-08-08T18:50:00.272Z,14.88
2022-08-08T18:52:30.347Z,17.00
2022-08-08T18:55:10.654Z,17.92
2022-08-08T18:57:44.526Z,17.27
2022-08-08T19:00:19.507Z,16.17
2022-08-08T19:02:55.930Z,20.33
2022-08-08T19:05:32.144Z,20.02
2022-08-08T19:08:25.339Z,20.02
2022-08-08T19:10:59.242Z,19.30
2022-08-08T19:13:38.497Z,74.82
2022-08-08T19:16:19.468Z,22.38
2022-08-08T19:19:01.924Z,60.65
2022-08-08T19:21:33.348Z,16.25
2022-08-08T19:24:39.147Z,18.90
2022-08-08T19:27:05.914Z,16.10
2022-08-08T19:29:40.687Z,13.23
2022-08-08T19:32:12.996Z,20.50
2022-08-08T19:34:51.488Z,19.23
2022-08-08T19:37:43.010Z,19.17
2022-08-08T19:40:16.144Z,14.25
2022-08-08T19:42:45.652Z,17.13
2022-08-08T19:45:59.958Z,16.95
2022-08-08T19:48:03.609Z,21.58
2022-08-08T19:50:34.421Z,20.45
2022-08-08T19:53:02.907Z,23.83
2022-08-08T19:55:51.626Z,20.98
2022-08-08T19:58:20.231Z,21.80
2022-08-08T20:00:53.162Z,21.88
2022-08-08T20:04:00.880Z,22.00
2022-08-08T20:06:16.401Z,20.63
2022-08-08T20:08:48.271Z,20.73
2022-08-08T20:11:18.775Z,17.15
2022-08-08T20:14:34.698Z,21.25
2022-08-08T20:16:40.389Z,22.30
2022-08-08T20:19:09.594Z,21.77
2022-08-08T20:21:40.294Z,20.40
2022-08-08T20:24:09.155Z,21.00
2022-08-08T20:26:41.590Z,23.00
2022-08-08T20:29:15.544Z,22.40
2022-08-08T20:32:02.725Z,27.10
2022-08-08T20:34:33.017Z,20.02
2022-08-08T20:37:07.413Z,17.45
2022-08-08T20:39:41.274Z,19.00
2022-08-08T20:42:23.663Z,21.58
2022-08-08T20:44:57.844Z,22.20
2022-08-08T20:47:26.842Z,20.98
2022-08-08T20:50:06.253Z,27.65
2022-08-08T20:52:40.879Z,27.73
2022-08-08T20:55:25.562Z,26.98
2022-08-08T20:57:57.965Z,23.45
2022-08-08T21:00:26.792Z,24.70
2022-08-08T21:02:55.597Z,24.30
2022-08-08T21:05:24.250Z,25.85
2022-08-08T21:08:33.575Z,26.85
2022-08-08T21:10:50.898Z,25.25
2022-08-08T21:13:19.426Z,26.20
2022-08-08T21:16:05.809Z,31.38
2022-08-08T21:18:36.551Z,38.55
2022-08-08T21:21:20.759Z,29.00
2022-08-08T21:24:13.027Z,34.70
2022-08-08T21:26:54.357Z,29.00
2022-08-08T21:30:05.389Z,31.20
2022-08-08T21:32:14.108Z,29.15
2022-08-08T21:34:49.690Z,30.02
2022-08-08T21:37:19.144Z,40.00
2022-08-08T21:39:56.815Z,31.48
2022-08-08T21:42:25.774Z,35.25
2022-08-08T21:44:58.868Z,34.40
2022-08-08T21:48:07.426Z,35.05
2022-08-08T21:50:18.607Z,36.63
2022-08-08T21:54:33.711Z,35.83
2022-08-08T21:56:20.043Z,38.08
2022-08-08T21:58:32.194Z,36.65
2022-08-08T22:01:06.113Z,34.55
2022-08-08T22:03:53.307Z,41.65
2022-08-08T22:06:30.998Z,42.22
2022-08-08T22:09:02.729Z,38.85
2022-08-08T22:11:59.465Z,42.85
2022-08-08T22:14:28.983Z,49.67
2022-08-08T22:17:01.085Z,44.03
2022-08-08T22:20:11.477Z,45.70
2022-08-08T22:22:19.875Z,42.72
2022-08-08T22:24:57.386Z,42.60
2022-08-08T22:28:00.526Z,40.72
2022-08-08T22:30:16.323Z,48.38
2022-08-08T22:32:58.430Z,44.78
2022-08-08T22:36:04.270Z,46.60
2022-08-08T22:38:17.640Z,51.38
2022-08-08T22:40:48.207Z,50.22
2022-08-08T22:43:19.596Z,51.38
2022-08-08T22:45:52.570Z,45.17
2022-08-08T22:48:22.527Z,55.88
2022-08-08T22:50:53.531Z,55.78
2022-08-08T22:54:32.963Z,52.22
2022-08-08T22:56:11.585Z,55.20
2022-08-08T22:58:44.127Z,55.15
2022-08-08T23:02:02.215Z,62.80
2022-08-08T23:04:08.584Z,61.05
2022-08-08T23:06:40.546Z,59.33
2022-08-08T23:09:10.580Z,61.50
2022-08-08T23:12:28.731Z,66.57
2022-08-08T23:14:29.120Z,69.35
2022-08-08T23:16:59.626Z,67.30
2022-08-08T23:19:31.093Z,59.03
2022-08-08T23:22:04.107Z,68.40
2022-08-08T23:24:36.584Z,61.00
2022-08-08T23:27:06.175Z,66.57
2022-08-08T23:29:36.867Z,80.78
2022-08-08T23:32:06.714Z,65.20
2022-08-08T23:34:40.224Z,70.65
2022-08-08T23:37:27.190Z,73.30
2022-08-08T23:40:15.782Z,76.38
2022-08-08T23:42:45.173Z,75.00
2022-08-08T23:45:16.477Z,83.35
2022-08-08T23:49:07.763Z,71.65
2022-08-08T23:50:33.999Z,78.25
2022-08-08T23:53:03.533Z,73.43
2022-08-08T23:55:38.257Z,75.95
2022-08-08T23:58:37.866Z,80.80
